Hales Eddy, New York
Current Conditions -  °F | °C
As of 8:35 AM on Friday 19 Dec 2014 (Local Time) from KMSV Reporting Station
Overcast Overcast  
Wind Chill: -11°   Ceiling: 1900
Heat Index: -4°   Visibility: 10mi
Dew Point: -8°   Wind: 16mph
Humidity: 74%   Direction: 300°WNW
Pressure: 30"   Gusts: 24mph
Location:  41.9099°N, 75.1815°W
Report Text: KMSV 191335Z AUTO 30014G21KT 10SM OVC019 M04/M08 A3000 RMK AO1
Loading
Personal Weather Stations






























Interactive Weather Map New forecast layout! Learn more

10-Day Weather Forecast

Advertisements
Track Severe Weather on mobile